sensor_id;sensor_type;location;lat;lon;timestamp;pressure;altitude;pressure_sealevel;temperature;humidity
44359;BME280;30077;52.474;13.326;2023-03-05T00:00:22;100829.47;;;3.31;99.99
44359;BME280;30077;52.474;13.326;2023-03-05T00:05:25;100825.09;;;3.28;100.00
44359;BME280;30077;52.474;13.326;2023-03-05T00:10:25;100817.41;;;3.10;100.00
44359;BME280;30077;52.474;13.326;2023-03-05T00:15:25;100810.47;;;3.01;100.00
44359;BME280;30077;52.474;13.326;2023-03-05T00:20:25;100799.16;;;2.92;100.00
44359;BME280;30077;52.474;13.326;2023-03-05T00:25:26;100793.25;;;2.71;100.00
44359;BME280;30077;52.474;13.326;2023-03-05T00:30:26;100795.09;;;2.63;100.00
44359;BME280;30077;52.474;13.326;2023-03-05T00:35:26;100773.22;;;2.58;100.00
44359;BME280;30077;52.474;13.326;2023-03-05T00:40:26;100769.72;;;2.53;100.00
44359;BME280;30077;52.474;13.326;2023-03-05T00:45:26;100761.03;;;2.48;100.00
44359;BME280;30077;52.474;13.326;2023-03-05T00:50:27;100762.69;;;2.55;100.00
44359;BME280;30077;52.474;13.326;2023-03-05T00:55:27;100748.66;;;2.53;100.00
44359;BME280;30077;52.474;13.326;2023-03-05T01:00:27;100743.34;;;2.59;100.00
44359;BME280;30077;52.474;13.326;2023-03-05T01:05:28;100740.72;;;2.59;100.00
44359;BME280;30077;52.474;13.326;2023-03-05T01:10:28;100727.41;;;2.68;100.00
44359;BME280;30077;52.474;13.326;2023-03-05T01:15:29;100727.56;;;2.56;100.00
44359;BME280;30077;52.474;13.326;2023-03-05T01:20:29;100731.91;;;2.60;100.00
44359;BME280;30077;52.474;13.326;2023-03-05T01:25:29;100731.91;;;2.60;100.00
44359;BME280;30077;52.474;13.326;2023-03-05T01:30:29;100724.06;;;2.54;99.19
44359;BME280;30077;52.474;13.326;2023-03-05T01:35:29;100720.63;;;2.49;98.15
44359;BME280;30077;52.474;13.326;2023-03-05T01:40:30;100715.44;;;2.39;93.79
44359;BME280;30077;52.474;13.326;2023-03-05T01:45:30;100704.13;;;2.31;94.87
44359;BME280;30077;52.474;13.326;2023-03-05T01:50:31;100710.25;;;2.32;92.16
44359;BME280;30077;52.474;13.326;2023-03-05T01:55:32;100705.16;;;2.16;91.68
44359;BME280;30077;52.474;13.326;2023-03-05T02:00:36;100709.69;;;2.04;90.64
44359;BME280;30077;52.474;13.326;2023-03-05T02:05:39;100698.28;;;2.05;89.75
44359;BME280;30077;52.474;13.326;2023-03-05T02:10:41;100698.28;;;2.05;87.57
44359;BME280;30077;52.474;13.326;2023-03-05T02:15:42;100696.53;;;2.04;86.49
44359;BME280;30077;52.474;13.326;2023-03-05T02:20:45;100685.13;;;2.05;84.53
44359;BME280;30077;52.474;13.326;2023-03-05T02:25:46;100681.63;;;2.00;84.58
44359;BME280;30077;52.474;13.326;2023-03-05T02:30:46;100678.97;;;2.06;84.92
44359;BME280;30077;52.474;13.326;2023-03-05T02:35:46;100676.31;;;2.06;83.64
44359;BME280;30077;52.474;13.326;2023-03-05T02:40:47;100659.63;;;2.07;82.95
44359;BME280;30077;52.474;13.326;2023-03-05T02:45:47;100660.56;;;2.03;82.74
44359;BME280;30077;52.474;13.326;2023-03-05T02:50:47;100653.56;;;2.02;83.09
44359;BME280;30077;52.474;13.326;2023-03-05T02:55:48;100645.72;;;1.96;82.15
44359;BME280;30077;52.474;13.326;2023-03-05T03:00:48;100649.09;;;2.07;82.31
44359;BME280;30077;52.474;13.326;2023-03-05T03:05:49;100644.88;;;1.92;83.36
44359;BME280;30077;52.474;13.326;2023-03-05T03:10:49;100633.38;;;2.04;83.20
44359;BME280;30077;52.474;13.326;2023-03-05T03:15:49;100623.81;;;1.97;83.18
44359;BME280;30077;52.474;13.326;2023-03-05T03:20:49;100629.16;;;1.89;83.64
44359;BME280;30077;52.474;13.326;2023-03-05T03:25:49;100624.72;;;1.92;84.60
44359;BME280;30077;52.474;13.326;2023-03-05T03:30:49;100616.00;;;1.87;85.38
44359;BME280;30077;52.474;13.326;2023-03-05T03:35:49;100606.38;;;1.86;84.87
44359;BME280;30077;52.474;13.326;2023-03-05T03:40:50;100603.81;;;1.77;85.34
44359;BME280;30077;52.474;13.326;2023-03-05T03:45:50;100606.47;;;1.76;85.99
44359;BME280;30077;52.474;13.326;2023-03-05T03:50:50;100597.00;;;1.61;87.44
44359;BME280;30077;52.474;13.326;2023-03-05T03:55:50;100590.03;;;1.54;88.38
44359;BME280;30077;52.474;13.326;2023-03-05T04:00:57;100588.34;;;1.47;89.79
44359;BME280;30077;52.474;13.326;2023-03-05T04:05:57;100578.91;;;1.24;91.89
44359;BME280;30077;52.474;13.326;2023-03-05T04:10:59;100576.34;;;1.16;93.66
44359;BME280;30077;52.474;13.326;2023-03-05T04:15:59;100566.72;;;1.14;93.75
44359;BME280;30077;52.474;13.326;2023-03-05T04:20:59;100570.28;;;1.10;95.24
44359;BME280;30077;52.474;13.326;2023-03-05T04:26:00;100569.44;;;1.02;95.83
44359;BME280;30077;52.474;13.326;2023-03-05T04:31:00;100564.22;;;0.99;97.18
44359;BME280;30077;52.474;13.326;2023-03-05T04:36:00;100558.06;;;1.01;97.55
44359;BME280;30077;52.474;13.326;2023-03-05T04:41:01;100552.03;;;0.91;98.91
44359;BME280;30077;52.474;13.326;2023-03-05T04:46:01;100555.50;;;0.90;99.50
44359;BME280;30077;52.474;13.326;2023-03-05T04:51:01;100541.53;;;0.88;100.00
44359;BME280;30077;52.474;13.326;2023-03-05T04:56:02;100543.31;;;0.83;100.00
44359;BME280;30077;52.474;13.326;2023-03-05T05:01:03;100545.06;;;0.84;100.00
44359;BME280;30077;52.474;13.326;2023-03-05T05:06:04;100552.94;;;0.86;100.00
44359;BME280;30077;52.474;13.326;2023-03-05T05:11:05;100547.69;;;0.84;100.00
44359;BME280;30077;52.474;13.326;2023-03-05T05:16:06;100545.97;;;0.79;100.00
44359;BME280;30077;52.474;13.326;2023-03-05T05:21:07;100544.25;;;0.75;100.00
44359;BME280;30077;52.474;13.326;2023-03-05T05:26:09;100532.88;;;0.74;100.00
44359;BME280;30077;52.474;13.326;2023-03-05T05:31:13;100535.47;;;0.80;100.00
44359;BME280;30077;52.474;13.326;2023-03-05T05:36:14;100530.19;;;0.82;100.00
44359;BME280;30077;52.474;13.326;2023-03-05T05:41:16;100533.63;;;0.93;100.00
44359;BME280;30077;52.474;13.326;2023-03-05T05:46:17;100536.25;;;0.94;100.00
44359;BME280;30077;52.474;13.326;2023-03-05T05:51:19;100537.06;;;1.03;100.00
44359;BME280;30077;52.474;13.326;2023-03-05T05:56:20;100539.63;;;1.10;100.00
44359;BME280;30077;52.474;13.326;2023-03-05T06:01:22;100543.09;;;1.12;100.00
44359;BME280;30077;52.474;13.326;2023-03-05T06:06:23;100542.09;;;1.26;100.00
44359;BME280;30077;52.474;13.326;2023-03-05T06:11:23;100544.78;;;1.21;100.00
44359;BME280;30077;52.474;13.326;2023-03-05T06:16:23;100547.38;;;1.23;100.00
44359;BME280;30077;52.474;13.326;2023-03-05T06:21:24;100540.25;;;1.38;100.00
44359;BME280;30077;52.474;13.326;2023-03-05T06:26:24;100525.22;;;1.53;100.00
44359;BME280;30077;52.474;13.326;2023-03-05T06:31:25;100526.78;;;1.66;100.00
44359;BME280;30077;52.474;13.326;2023-03-05T06:36:25;100528.47;;;1.75;100.00
44359;BME280;30077;52.474;13.326;2023-03-05T06:41:28;100522.91;;;2.01;99.04
44359;BME280;30077;52.474;13.326;2023-03-05T06:46:29;100522.81;;;2.07;98.82
44359;BME280;30077;52.474;13.326;2023-03-05T06:51:31;100534.22;;;2.06;98.03
44359;BME280;30077;52.474;13.326;2023-03-05T06:56:33;100526.31;;;2.09;98.16
44359;BME280;30077;52.474;13.326;2023-03-05T07:01:33;100529.72;;;2.14;97.78
44359;BME280;30077;52.474;13.326;2023-03-05T07:06:34;100525.31;;;2.17;97.11
44359;BME280;30077;52.474;13.326;2023-03-05T07:11:35;100531.97;;;2.45;94.71
44359;BME280;30077;52.474;13.326;2023-03-05T07:16:35;100540.50;;;2.62;92.44
44359;BME280;30077;52.474;13.326;2023-03-05T07:21:35;100544.22;;;2.47;91.69
44359;BME280;30077;52.474;13.326;2023-03-05T07:26:36;100538.13;;;2.44;91.43
44359;BME280;30077;52.474;13.326;2023-03-05T07:31:36;100533.03;;;2.31;91.54
44359;BME280;30077;52.474;13.326;2023-03-05T07:36:36;100539.94;;;2.38;91.11
44359;BME280;30077;52.474;13.326;2023-03-05T07:41:37;100544.91;;;2.60;89.06
44359;BME280;30077;52.474;13.326;2023-03-05T07:46:37;100546.66;;;2.61;88.94
44359;BME280;30077;52.474;13.326;2023-03-05T07:51:38;100540.06;;;2.89;87.64
44359;BME280;30077;52.474;13.326;2023-03-05T07:56:39;100543.69;;;2.84;85.86
44359;BME280;30077;52.474;13.326;2023-03-05T08:01:39;100543.16;;;2.62;87.08
44359;BME280;30077;52.474;13.326;2023-03-05T08:06:40;100534.53;;;2.49;86.86
44359;BME280;30077;52.474;13.326;2023-03-05T08:11:41;100544.16;;;2.50;86.55
44359;BME280;30077;52.474;13.326;2023-03-05T08:16:41;100543.00;;;2.73;86.20
44359;BME280;30077;52.474;13.326;2023-03-05T08:21:41;100532.16;;;2.89;84.49
44359;BME280;30077;52.474;13.326;2023-03-05T08:26:41;100532.81;;;3.04;82.18
44359;BME280;30077;52.474;13.326;2023-03-05T08:31:43;100522.06;;;3.18;81.02
44359;BME280;30077;52.474;13.326;2023-03-05T08:36:44;100511.00;;;3.47;78.87
44359;BME280;30077;52.474;13.326;2023-03-05T08:41:44;100513.22;;;3.68;76.53
44359;BME280;30077;52.474;13.326;2023-03-05T08:46:45;100515.06;;;3.65;75.87
44359;BME280;30077;52.474;13.326;2023-03-05T08:51:46;100506.72;;;3.40;75.10
44359;BME280;30077;52.474;13.326;2023-03-05T08:56:46;100487.84;;;3.61;74.19
44359;BME280;30077;52.474;13.326;2023-03-05T09:01:46;100497.81;;;3.47;74.17
44359;BME280;30077;52.474;13.326;2023-03-05T09:06:46;100483.66;;;3.51;73.29
44359;BME280;30077;52.474;13.326;2023-03-05T09:11:46;100487.88;;;4.03;71.85
44359;BME280;30077;52.474;13.326;2023-03-05T09:16:47;100489.75;;;3.98;73.52
44359;BME280;30077;52.474;13.326;2023-03-05T09:21:47;100482.88;;;3.91;72.15
44359;BME280;30077;52.474;13.326;2023-03-05T09:26:47;100482.97;;;3.84;71.72
44359;BME280;30077;52.474;13.326;2023-03-05T09:31:49;100489.13;;;3.42;72.42
44359;BME280;30077;52.474;13.326;2023-03-05T09:36:49;100482.84;;;3.49;72.29
44359;BME280;30077;52.474;13.326;2023-03-05T09:47:18;100486.00;;;3.66;72.70
44359;BME280;30077;52.474;13.326;2023-03-05T09:52:29;100471.56;;;3.84;70.44
44359;BME280;30077;52.474;13.326;2023-03-05T09:57:37;100453.06;;;4.26;69.50
44359;BME280;30077;52.474;13.326;2023-03-05T10:02:43;100458.19;;;4.33;67.89
44359;BME280;30077;52.474;13.326;2023-03-05T10:08:08;100446.16;;;4.20;66.49
44359;BME280;30077;52.474;13.326;2023-03-05T10:13:49;100451.72;;;4.47;65.69
44359;BME280;30077;52.474;13.326;2023-03-05T10:18:45;100443.56;;;4.17;63.77
44359;BME280;30077;52.474;13.326;2023-03-05T10:44:56;100414.63;;;4.50;66.38
44359;BME280;30077;52.474;13.326;2023-03-05T10:49:57;100424.28;;;4.15;66.90
44359;BME280;30077;52.474;13.326;2023-03-05T10:54:57;100415.00;;;3.96;68.44
44359;BME280;30077;52.474;13.326;2023-03-05T11:00:00;100425.06;;;3.78;71.07
44359;BME280;30077;52.474;13.326;2023-03-05T11:05:15;100412.91;;;3.71;73.25
44359;BME280;30077;52.474;13.326;2023-03-05T11:10:26;100415.09;;;3.51;74.63
44359;BME280;30077;52.474;13.326;2023-03-05T11:15:27;100421.88;;;3.62;75.34
44359;BME280;30077;52.474;13.326;2023-03-05T11:20:30;100413.28;;;3.95;74.01
44359;BME280;30077;52.474;13.326;2023-03-05T11:25:31;100404.09;;;3.72;73.32
44359;BME280;30077;52.474;13.326;2023-03-05T11:30:34;100412.44;;;3.51;74.71
44359;BME280;30077;52.474;13.326;2023-03-05T11:35:35;100403.56;;;3.56;75.24
44359;BME280;30077;52.474;13.326;2023-03-05T11:40:36;100397.53;;;3.50;74.05
44359;BME280;30077;52.474;13.326;2023-03-05T11:45:36;100385.88;;;4.00;72.79
44359;BME280;30077;52.474;13.326;2023-03-05T11:50:38;100386.09;;;3.91;73.19
44359;BME280;30077;52.474;13.326;2023-03-05T11:55:41;100386.25;;;3.83;73.03
44359;BME280;30077;52.474;13.326;2023-03-05T12:00:43;100392.63;;;3.31;77.32
44359;BME280;30077;52.474;13.326;2023-03-05T12:05:45;100387.34;;;2.32;90.55
44359;BME280;30077;52.474;13.326;2023-03-05T12:10:46;100374.63;;;2.59;98.29
44359;BME280;30077;52.474;13.326;2023-03-05T12:21:14;100351.50;;;3.63;85.09
44359;BME280;30077;52.474;13.326;2023-03-05T12:26:17;100340.47;;;3.84;82.13
44359;BME280;30077;52.474;13.326;2023-03-05T12:31:27;100329.78;;;4.28;79.03
44359;BME280;30077;52.474;13.326;2023-03-05T12:36:34;100327.66;;;4.44;76.21
44359;BME280;30077;52.474;13.326;2023-03-05T12:41:34;100326.59;;;4.14;75.31
44359;BME280;30077;52.474;13.326;2023-03-05T12:47:22;100318.28;;;4.30;73.68
44359;BME280;30077;52.474;13.326;2023-03-05T12:51:57;100326.06;;;4.37;75.06
44359;BME280;30077;52.474;13.326;2023-03-05T12:56:59;100320.97;;;3.92;78.21
44359;BME280;30077;52.474;13.326;2023-03-05T13:02:01;100349.53;;;3.74;82.18
44359;BME280;30077;52.474;13.326;2023-03-05T13:07:04;100326.13;;;3.98;83.50
44359;BME280;30077;52.474;13.326;2023-03-05T13:12:09;100316.94;;;4.14;82.17
44359;BME280;30077;52.474;13.326;2023-03-05T13:17:27;100305.38;;;4.54;78.86
44359;BME280;30077;52.474;13.326;2023-03-05T13:22:28;100300.66;;;4.65;77.95
44359;BME280;30077;52.474;13.326;2023-03-05T13:27:29;100292.75;;;4.65;76.60
44359;BME280;30077;52.474;13.326;2023-03-05T13:32:30;100292.53;;;4.39;75.88
44359;BME280;30077;52.474;13.326;2023-03-05T13:37:32;100289.53;;;4.87;75.06
44359;BME280;30077;52.474;13.326;2023-03-05T13:42:34;100293.59;;;4.98;71.84
44359;BME280;30077;52.474;13.326;2023-03-05T13:47:35;100308.50;;;4.68;71.55
44359;BME280;30077;52.474;13.326;2023-03-05T13:52:36;100290.69;;;4.76;70.98
44359;BME280;30077;52.474;13.326;2023-03-05T13:57:46;100285.78;;;4.61;71.22
44359;BME280;30077;52.474;13.326;2023-03-05T14:02:49;100285.03;;;4.90;71.10
44359;BME280;30077;52.474;13.326;2023-03-05T14:07:51;100273.06;;;4.75;70.35
44359;BME280;30077;52.474;13.326;2023-03-05T14:12:51;100277.19;;;4.53;70.48
44359;BME280;30077;52.474;13.326;2023-03-05T14:18:05;100288.38;;;3.94;71.99
44359;BME280;30077;52.474;13.326;2023-03-05T14:28:26;100287.72;;;3.04;91.96
44359;BME280;30077;52.474;13.326;2023-03-05T14:33:28;100287.63;;;3.10;89.26
44359;BME280;30077;52.474;13.326;2023-03-05T14:38:30;100271.13;;;3.41;82.64
44359;BME280;30077;52.474;13.326;2023-03-05T14:43:30;100268.97;;;3.59;82.41
44359;BME280;30077;52.474;13.326;2023-03-05T14:48:31;100265.31;;;3.65;83.12
44359;BME280;30077;52.474;13.326;2023-03-05T14:53:33;100270.44;;;3.71;82.16
44359;BME280;30077;52.474;13.326;2023-03-05T14:58:36;100252.59;;;3.82;81.21
44359;BME280;30077;52.474;13.326;2023-03-05T15:03:36;100252.47;;;3.89;79.88
44359;BME280;30077;52.474;13.326;2023-03-05T15:08:37;100249.88;;;3.85;79.57
44359;BME280;30077;52.474;13.326;2023-03-05T15:13:37;100242.25;;;3.73;80.09
44359;BME280;30077;52.474;13.326;2023-03-05T15:18:37;100239.59;;;3.73;80.27
44359;BME280;30077;52.474;13.326;2023-03-05T15:23:38;100238.00;;;3.66;80.75
44359;BME280;30077;52.474;13.326;2023-03-05T15:28:38;100238.13;;;3.61;80.94
44359;BME280;30077;52.474;13.326;2023-03-05T15:33:38;100229.50;;;3.16;80.66
44359;BME280;30077;52.474;13.326;2023-03-05T15:38:40;100227.63;;;3.21;82.27
44359;BME280;30077;52.474;13.326;2023-03-05T15:43:40;100231.22;;;3.17;82.03
44359;BME280;30077;52.474;13.326;2023-03-05T15:48:41;100234.84;;;3.11;81.88
44359;BME280;30077;52.474;13.326;2023-03-05T15:53:43;100232.59;;;2.93;83.52
44359;BME280;30077;52.474;13.326;2023-03-05T15:58:46;100230.94;;;2.89;84.36
44359;BME280;30077;52.474;13.326;2023-03-05T16:03:47;100227.41;;;2.90;83.30
44359;BME280;30077;52.474;13.326;2023-03-05T16:08:48;100220.00;;;2.65;82.97
44359;BME280;30077;52.474;13.326;2023-03-05T16:13:49;100212.53;;;2.87;79.20
44359;BME280;30077;52.474;13.326;2023-03-05T16:18:50;100216.16;;;2.83;80.54
44359;BME280;30077;52.474;13.326;2023-03-05T16:23:52;100207.38;;;2.81;81.98
44359;BME280;30077;52.474;13.326;2023-03-05T16:28:52;100215.28;;;2.81;81.13
44359;BME280;30077;52.474;13.326;2023-03-05T16:33:53;100219.97;;;2.67;80.67
44359;BME280;30077;52.474;13.326;2023-03-05T16:38:54;100208.75;;;2.57;81.62
44359;BME280;30077;52.474;13.326;2023-03-05T16:43:57;100215.81;;;2.55;82.50
44359;BME280;30077;52.474;13.326;2023-03-05T16:48:58;100211.41;;;2.56;82.61
44359;BME280;30077;52.474;13.326;2023-03-05T16:53:58;100203.56;;;2.54;83.08
44359;BME280;30077;52.474;13.326;2023-03-05T16:58:59;100200.94;;;2.53;84.06
44359;BME280;30077;52.474;13.326;2023-03-05T17:04:00;100215.78;;;2.58;83.59
44359;BME280;30077;52.474;13.326;2023-03-05T17:09:01;100222.00;;;2.53;84.78
44359;BME280;30077;52.474;13.326;2023-03-05T17:14:02;100218.41;;;2.57;84.53
44359;BME280;30077;52.474;13.326;2023-03-05T17:19:03;100217.69;;;2.49;85.42
44359;BME280;30077;52.474;13.326;2023-03-05T17:24:03;100207.06;;;2.55;85.81
44359;BME280;30077;52.474;13.326;2023-03-05T17:29:03;100208.03;;;2.51;85.48
44359;BME280;30077;52.474;13.326;2023-03-05T17:34:04;100201.84;;;2.50;86.02
44359;BME280;30077;52.474;13.326;2023-03-05T17:39:05;100207.25;;;2.44;86.25
44359;BME280;30077;52.474;13.326;2023-03-05T17:44:06;100205.50;;;2.45;87.10
44359;BME280;30077;52.474;13.326;2023-03-05T17:49:06;100202.06;;;2.39;87.12
44359;BME280;30077;52.474;13.326;2023-03-05T17:54:06;100194.31;;;2.33;87.42
44359;BME280;30077;52.474;13.326;2023-03-05T17:59:06;100185.59;;;2.28;88.22
44359;BME280;30077;52.474;13.326;2023-03-05T18:04:07;100190.97;;;2.25;88.77
44359;BME280;30077;52.474;13.326;2023-03-05T18:09:07;100193.66;;;2.21;89.60
44359;BME280;30077;52.474;13.326;2023-03-05T18:14:07;100191.00;;;2.22;90.07
44359;BME280;30077;52.474;13.326;2023-03-05T18:19:07;100185.59;;;2.28;90.69
44359;BME280;30077;52.474;13.326;2023-03-05T18:24:10;100196.22;;;2.25;90.75
44359;BME280;30077;52.474;13.326;2023-03-05T18:29:13;100181.31;;;2.24;91.98
44359;BME280;30077;52.474;13.326;2023-03-05T18:34:13;100177.84;;;2.22;92.79
44359;BME280;30077;52.474;13.326;2023-03-05T18:39:13;100171.63;;;2.26;93.10
44359;BME280;30077;52.474;13.326;2023-03-05T18:44:15;100170.00;;;2.19;93.44
44359;BME280;30077;52.474;13.326;2023-03-05T18:49:15;100162.22;;;2.14;94.63
44359;BME280;30077;52.474;13.326;2023-03-05T18:54:15;100167.47;;;2.14;94.46
44359;BME280;30077;52.474;13.326;2023-03-05T18:59:15;100171.06;;;2.09;94.69
44359;BME280;30077;52.474;13.326;2023-03-05T19:04:15;100166.66;;;2.09;94.63
44359;BME280;30077;52.474;13.326;2023-03-05T19:09:16;100158.06;;;2.00;95.27
44359;BME280;30077;52.474;13.326;2023-03-05T19:14:25;100151.25;;;1.89;96.07
44359;BME280;30077;52.474;13.326;2023-03-05T19:19:28;100154.72;;;1.91;96.84
44359;BME280;30077;52.474;13.326;2023-03-05T19:24:29;100145.94;;;1.92;97.46
44359;BME280;30077;52.474;13.326;2023-03-05T19:29:29;100147.63;;;1.97;97.54
44359;BME280;30077;52.474;13.326;2023-03-05T19:34:31;100151.25;;;1.89;98.96
44359;BME280;30077;52.474;13.326;2023-03-05T19:39:32;100142.47;;;1.90;100.00
44359;BME280;30077;52.474;13.326;2023-03-05T19:44:32;100140.69;;;1.92;100.00
44359;BME280;30077;52.474;13.326;2023-03-05T19:49:32;100144.16;;;1.95;100.00
44359;BME280;30077;52.474;13.326;2023-03-05T19:54:32;100133.56;;;1.98;100.00
44359;BME280;30077;52.474;13.326;2023-03-05T19:59:32;100129.13;;;2.00;100.00
44359;BME280;30077;52.474;13.326;2023-03-05T20:04:33;100133.56;;;1.98;100.00
44359;BME280;30077;52.474;13.326;2023-03-05T20:09:33;100117.72;;;2.01;100.00
44359;BME280;30077;52.474;13.326;2023-03-05T20:14:33;100128.34;;;1.95;100.00
44359;BME280;30077;52.474;13.326;2023-03-05T20:19:33;100116.06;;;1.97;100.00
44359;BME280;30077;52.474;13.326;2023-03-05T20:24:33;100106.31;;;2.02;100.00
44359;BME280;30077;52.474;13.326;2023-03-05T20:29:34;100109.84;;;2.01;100.00
44359;BME280;30077;52.474;13.326;2023-03-05T20:34:34;100107.22;;;2.01;100.00
44359;BME280;30077;52.474;13.326;2023-03-05T20:39:34;100108.00;;;2.04;100.00
44359;BME280;30077;52.474;13.326;2023-03-05T20:44:34;100096.53;;;2.07;100.00
44359;BME280;30077;52.474;13.326;2023-03-05T20:49:34;100096.41;;;2.14;100.00
44359;BME280;30077;52.474;13.326;2023-03-05T20:54:34;100086.75;;;2.15;100.00
44359;BME280;30077;52.474;13.326;2023-03-05T20:59:35;100080.66;;;2.13;100.00
44359;BME280;30077;52.474;13.326;2023-03-05T21:04:35;100080.66;;;2.13;100.00
44359;BME280;30077;52.474;13.326;2023-03-05T21:09:35;100085.97;;;2.10;100.00
44359;BME280;30077;52.474;13.326;2023-03-05T21:14:36;100068.50;;;2.06;100.00
44359;BME280;30077;52.474;13.326;2023-03-05T21:19:39;100066.84;;;2.02;100.00
44359;BME280;30077;52.474;13.326;2023-03-05T21:24:40;100063.31;;;2.03;100.00
44359;BME280;30077;52.474;13.326;2023-03-05T21:30:00;100052.03;;;1.98;100.00
44359;BME280;30077;52.474;13.326;2023-03-05T21:35:01;100055.63;;;1.92;100.00
44359;BME280;30077;52.474;13.326;2023-03-05T21:40:01;100045.09;;;1.92;100.00
44359;BME280;30077;52.474;13.326;2023-03-05T21:45:01;100040.78;;;1.89;100.00
44359;BME280;30077;52.474;13.326;2023-03-05T21:50:02;100033.78;;;1.88;100.00
44359;BME280;30077;52.474;13.326;2023-03-05T21:55:02;100019.91;;;1.82;100.00
44359;BME280;30077;52.474;13.326;2023-03-05T22:00:03;100018.06;;;1.85;100.00
44359;BME280;30077;52.474;13.326;2023-03-05T22:05:06;100011.13;;;1.81;100.00
44359;BME280;30077;52.474;13.326;2023-03-05T22:10:07;100006.81;;;1.79;100.00
44359;BME280;30077;52.474;13.326;2023-03-05T22:15:09;100004.22;;;1.76;100.00
44359;BME280;30077;52.474;13.326;2023-03-05T22:20:10;99994.63;;;1.75;100.00
44359;BME280;30077;52.474;13.326;2023-03-05T22:25:11;99986.69;;;1.76;100.00
44359;BME280;30077;52.474;13.326;2023-03-05T22:30:12;99985.13;;;1.66;100.00
44359;BME280;30077;52.474;13.326;2023-03-05T22:35:13;99970.16;;;1.71;100.00
44359;BME280;30077;52.474;13.326;2023-03-05T22:40:14;99962.31;;;1.68;100.00
44359;BME280;30077;52.474;13.326;2023-03-05T22:45:15;99957.22;;;1.59;100.00
44359;BME280;30077;52.474;13.326;2023-03-05T22:50:16;99948.53;;;1.57;100.00
44359;BME280;30077;52.474;13.326;2023-03-05T22:55:16;99941.44;;;1.60;100.00
44359;BME280;30077;52.474;13.326;2023-03-05T23:00:18;99938.66;;;1.68;100.00
44359;BME280;30077;52.474;13.326;2023-03-05T23:05:20;99929.00;;;1.67;100.00
44359;BME280;30077;52.474;13.326;2023-03-05T23:10:21;99921.16;;;1.65;100.00
44359;BME280;30077;52.474;13.326;2023-03-05T23:15:24;99916.72;;;1.69;100.00
44359;BME280;30077;52.474;13.326;2023-03-05T23:20:26;99913.97;;;1.74;100.00
44359;BME280;30077;52.474;13.326;2023-03-05T23:25:27;99902.59;;;1.73;100.00
44359;BME280;30077;52.474;13.326;2023-03-05T23:30:29;99906.88;;;1.77;100.00
44359;BME280;30077;52.474;13.326;2023-03-05T23:35:33;99903.44;;;1.75;100.00
44359;BME280;30077;52.474;13.326;2023-03-05T23:40:35;99908.69;;;1.75;100.00
44359;BME280;30077;52.474;13.326;2023-03-05T23:45:35;99907.75;;;1.79;100.00
44359;BME280;30077;52.474;13.326;2023-03-05T23:50:37;99898.13;;;1.78;100.00
44359;BME280;30077;52.474;13.326;2023-03-05T23:55:39;99878.97;;;1.72;100.00
